Time;durP1;ratioP1;P1;durP2;ratioP2;P2;SDS_P1;SDS_P2;PMS_P1;PMS_P2;Temp;Humidity;BMP_temperature;BMP_pressure;BME280_temperature;BME280_humidity;BME280_pressure;Samples;Min_cycle;Max_cycle;Signal;HPM_P1;HPM_P2
2023/12/09 00:00:48;;;;;;;24.67;7.32;;;7.40;99.90;;;;;;5113933;28;20190;-60
2023/12/09 00:03:13;;;;;;;21.92;7.13;;;7.40;99.90;;;;;;5113436;28;20180;-61
2023/12/09 00:05:39;;;;;;;20.80;7.13;;;7.30;99.90;;;;;;5113073;28;20204;-60
2023/12/09 00:08:05;;;;;;;24.27;5.97;;;7.30;99.90;;;;;;5113102;28;20174;-58
2023/12/09 00:10:30;;;;;;;21.25;7.00;;;7.30;99.90;;;;;;5113364;28;20184;-60
2023/12/09 00:12:56;;;;;;;24.55;6.75;;;7.30;99.90;;;;;;5116808;28;20230;-60
2023/12/09 00:15:22;;;;;;;26.85;6.95;;;7.30;99.90;;;;;;5117010;28;20177;-59
2023/12/09 00:17:47;;;;;;;25.52;7.03;;;7.30;99.90;;;;;;5116950;28;20554;-59
2023/12/09 00:20:13;;;;;;;26.95;6.53;;;7.30;99.90;;;;;;5116900;28;20180;-60
2023/12/09 00:22:40;;;;;;;21.10;6.78;;;7.30;99.90;;;;;;5116402;28;20227;-59
2023/12/09 00:25:07;;;;;;;24.73;6.68;;;7.30;99.90;;;;;;5116424;28;20697;-60
2023/12/09 00:27:32;;;;;;;21.23;6.63;;;7.30;99.90;;;;;;5116735;28;20540;-59
2023/12/09 00:29:58;;;;;;;18.50;6.35;;;7.40;99.90;;;;;;5116385;28;20176;-60
2023/12/09 00:32:24;;;;;;;21.65;6.68;;;7.30;99.90;;;;;;5116720;28;20168;-60
2023/12/09 00:34:50;;;;;;;19.60;6.43;;;7.20;99.90;;;;;;5116589;28;20181;-60
2023/12/09 00:37:15;;;;;;;18.80;6.63;;;7.20;99.90;;;;;;5116588;28;20544;-60
2023/12/09 00:39:41;;;;;;;22.27;6.60;;;7.20;99.90;;;;;;5116548;28;20180;-60
2023/12/09 00:42:07;;;;;;;21.15;7.35;;;7.20;99.90;;;;;;5116199;28;20535;-59
2023/12/09 00:44:32;;;;;;;18.17;6.60;;;7.10;99.90;;;;;;5116382;28;20200;-60
2023/12/09 00:46:58;;;;;;;21.27;6.82;;;7.20;99.90;;;;;;5116558;28;20575;-60
2023/12/09 00:49:24;;;;;;;21.85;6.28;;;7.20;99.90;;;;;;5116371;28;20173;-60
2023/12/09 00:51:49;;;;;;;25.05;6.43;;;7.20;99.90;;;;;;5116283;28;20181;-59
2023/12/09 00:54:15;;;;;;;24.80;7.38;;;7.20;99.90;;;;;;5116281;28;20175;-59
2023/12/09 00:56:41;;;;;;;22.77;6.25;;;7.20;99.90;;;;;;5116190;28;20299;-59
2023/12/09 00:59:07;;;;;;;22.27;6.07;;;7.20;99.90;;;;;;5116158;28;20193;-59
2023/12/09 01:01:35;;;;;;;23.52;6.68;;;7.00;99.90;;;;;;5116101;28;20177;-59
2023/12/09 01:04:01;;;;;;;27.23;6.32;;;7.00;99.90;;;;;;5116075;28;20176;-59
2023/12/09 01:06:28;;;;;;;26.60;6.60;;;7.00;99.90;;;;;;5115937;28;20196;-60
2023/12/09 01:08:54;;;;;;;20.30;6.75;;;7.00;99.90;;;;;;5115979;28;20177;-60
2023/12/09 01:11:20;;;;;;;20.73;6.30;;;7.00;99.90;;;;;;5115935;28;20617;-60
2023/12/09 01:13:45;;;;;;;23.10;6.13;;;7.00;99.90;;;;;;5116043;28;20230;-60
2023/12/09 01:16:11;;;;;;;26.58;6.07;;;7.00;99.90;;;;;;5115556;28;20259;-60
2023/12/09 01:18:36;;;;;;;29.67;9.32;;;7.00;99.90;;;;;;5115772;28;20183;-59
2023/12/09 01:21:03;;;;;;;27.25;9.15;;;7.00;99.90;;;;;;5115291;28;20199;-59
2023/12/09 01:23:28;;;;;;;23.95;7.00;;;7.00;99.90;;;;;;5114986;28;20162;-59
2023/12/09 01:25:54;;;;;;;22.95;6.15;;;6.90;99.90;;;;;;5115875;28;20269;-59
2023/12/09 01:28:19;;;;;;;23.80;6.60;;;6.90;99.90;;;;;;5115597;28;20609;-60
2023/12/09 01:30:45;;;;;;;18.45;5.85;;;6.90;99.90;;;;;;5115372;28;20607;-59
2023/12/09 01:33:11;;;;;;;20.33;6.65;;;6.80;99.90;;;;;;5115588;28;20609;-59
2023/12/09 01:35:36;;;;;;;21.30;6.38;;;6.80;99.90;;;;;;5115490;28;20180;-60
2023/12/09 01:38:02;;;;;;;14.75;6.45;;;6.80;99.90;;;;;;5115105;28;20218;-60
2023/12/09 01:40:28;;;;;;;27.77;6.28;;;6.80;99.90;;;;;;5115306;28;20271;-59
2023/12/09 01:42:54;;;;;;;18.23;6.13;;;6.80;99.90;;;;;;5115299;28;20174;-59
2023/12/09 01:45:20;;;;;;;16.75;6.45;;;6.80;99.90;;;;;;5115171;28;20655;-60
2023/12/09 01:47:47;;;;;;;22.25;7.20;;;6.80;99.90;;;;;;5115155;28;20185;-60
2023/12/09 01:50:16;;;;;;;24.75;7.10;;;6.80;99.90;;;;;;5115131;28;20174;-59
2023/12/09 01:52:43;;;;;;;23.10;7.15;;;6.80;99.90;;;;;;5115111;28;20586;-59
2023/12/09 01:55:13;;;;;;;21.95;6.43;;;6.80;99.90;;;;;;5115043;28;20203;-60
2023/12/09 01:57:39;;;;;;;23.73;7.43;;;6.70;99.90;;;;;;5115121;28;20165;-60
2023/12/09 02:00:06;;;;;;;23.85;7.13;;;6.70;99.90;;;;;;5114983;28;20227;-60
2023/12/09 02:02:31;;;;;;;22.85;6.90;;;6.80;99.90;;;;;;5114951;28;20644;-60
2023/12/09 02:04:59;;;;;;;20.95;7.43;;;6.80;99.90;;;;;;5114787;28;20193;-60
2023/12/09 02:07:24;;;;;;;20.67;7.00;;;6.70;99.90;;;;;;5114833;28;20176;-60
2023/12/09 02:09:50;;;;;;;24.70;6.60;;;6.70;99.90;;;;;;5114831;28;20174;-60
2023/12/09 02:12:34;;;;;;;16.42;6.63;;;6.70;99.90;;;;;;5114776;28;20183;-60
2023/12/09 02:15:18;;;;;;;19.25;6.70;;;6.70;99.90;;;;;;5114679;28;20169;-60
2023/12/09 02:17:54;;;;;;;18.60;6.53;;;6.60;99.90;;;;;;5114707;28;20173;-60
2023/12/09 02:20:19;;;;;;;23.05;6.70;;;6.70;99.90;;;;;;5113438;28;20568;-60
2023/12/09 02:22:45;;;;;;;16.30;5.93;;;6.70;99.90;;;;;;5114059;28;20320;-60
2023/12/09 02:25:11;;;;;;;19.48;6.15;;;6.80;99.90;;;;;;5114407;28;20205;-60
2023/12/09 02:27:48;;;;;;;18.42;6.03;;;6.80;99.90;;;;;;5114578;28;20541;-60
2023/12/09 02:30:44;;;;;;;20.00;5.85;;;6.80;99.90;;;;;;5114464;28;20161;-60
2023/12/09 02:33:11;;;;;;;25.27;6.97;;;6.80;99.90;;;;;;5114295;28;20183;-60
2023/12/09 02:35:40;;;;;;;23.33;6.70;;;6.70;99.90;;;;;;5114329;28;20177;-60
2023/12/09 02:38:07;;;;;;;23.52;6.25;;;6.70;99.90;;;;;;5114342;28;20624;-59
2023/12/09 02:40:33;;;;;;;25.10;6.68;;;6.70;99.90;;;;;;5114235;28;20173;-59
2023/12/09 02:43:00;;;;;;;20.02;6.15;;;6.80;99.90;;;;;;5114286;28;20165;-59
2023/12/09 02:45:25;;;;;;;15.45;5.30;;;6.70;99.90;;;;;;5113874;28;20202;-60
2023/12/09 02:47:51;;;;;;;17.63;6.25;;;6.80;99.90;;;;;;5114223;28;20625;-60
2023/12/09 02:50:16;;;;;;;23.13;5.97;;;6.80;99.90;;;;;;5114161;28;20265;-59
2023/12/09 02:52:42;;;;;;;25.17;5.93;;;6.70;99.90;;;;;;5114113;28;20220;-60
2023/12/09 02:55:09;;;;;;;24.15;6.32;;;6.70;99.90;;;;;;5114094;28;20200;-59
2023/12/09 02:57:35;;;;;;;22.13;6.65;;;6.80;99.90;;;;;;5114070;28;20169;-60
2023/12/09 03:00:00;;;;;;;21.63;7.22;;;6.80;99.90;;;;;;5114066;28;20177;-60
2023/12/09 03:02:26;;;;;;;24.13;6.70;;;6.80;99.90;;;;;;5114007;28;20230;-59
2023/12/09 03:04:52;;;;;;;24.20;7.25;;;6.90;99.90;;;;;;5114223;28;20615;-60
2023/12/09 03:07:20;;;;;;;24.55;6.65;;;6.90;99.90;;;;;;5114079;28;20211;-59
2023/12/09 03:09:46;;;;;;;25.23;6.75;;;6.80;99.90;;;;;;5112891;28;20537;-60
2023/12/09 03:12:12;;;;;;;23.77;7.57;;;6.70;99.90;;;;;;5113906;28;20251;-60
2023/12/09 03:14:38;;;;;;;32.35;8.07;;;6.60;99.90;;;;;;5113917;28;20285;-60
2023/12/09 03:17:05;;;;;;;33.00;8.52;;;6.70;99.90;;;;;;5113838;28;20182;-60
2023/12/09 03:19:30;;;;;;;25.85;7.47;;;6.70;99.90;;;;;;5113801;28;20184;-60
2023/12/09 03:21:57;;;;;;;25.25;8.85;;;6.70;99.90;;;;;;5113635;28;20224;-60
2023/12/09 03:24:22;;;;;;;20.80;7.70;;;6.80;99.90;;;;;;5113828;28;20644;-60
2023/12/09 03:26:52;;;;;;;28.02;8.90;;;6.80;99.90;;;;;;5113654;28;20294;-59
2023/12/09 03:29:19;;;;;;;28.83;9.52;;;6.70;99.90;;;;;;5113735;28;20643;-59
2023/12/09 03:31:44;;;;;;;30.73;10.82;;;6.70;99.90;;;;;;5113429;28;20237;-59
2023/12/09 03:34:11;;;;;;;24.83;10.07;;;6.80;99.90;;;;;;5113415;28;20165;-60
2023/12/09 03:36:37;;;;;;;32.72;10.07;;;6.80;99.90;;;;;;5113517;28;20173;-60
2023/12/09 03:39:03;;;;;;;27.08;10.68;;;6.80;99.90;;;;;;5113697;28;20322;-60
2023/12/09 03:41:29;;;;;;;27.80;11.40;;;6.70;99.90;;;;;;5113640;28;20170;-59
2023/12/09 03:43:55;;;;;;;30.83;10.57;;;6.70;99.90;;;;;;5113607;28;20252;-59
2023/12/09 03:46:21;;;;;;;32.35;10.77;;;6.70;99.90;;;;;;5114611;28;20565;-59
2023/12/09 03:48:47;;;;;;;27.95;10.60;;;6.70;99.90;;;;;;5117249;28;20229;-59
2023/12/09 03:51:12;;;;;;;25.30;10.52;;;6.80;99.90;;;;;;5117481;28;20169;-60
2023/12/09 03:53:38;;;;;;;29.67;10.45;;;6.80;99.90;;;;;;5117483;28;20618;-60
2023/12/09 03:56:04;;;;;;;28.65;10.68;;;6.80;99.90;;;;;;5117405;28;20622;-59
2023/12/09 03:58:29;;;;;;;33.10;11.73;;;6.80;99.90;;;;;;5117362;27;20172;-60
2023/12/09 04:00:55;;;;;;;34.50;12.43;;;6.70;99.90;;;;;;5117312;28;20182;-60
2023/12/09 04:03:21;;;;;;;36.83;12.32;;;6.70;99.90;;;;;;5117278;28;20176;-60
2023/12/09 04:05:47;;;;;;;31.40;10.73;;;6.80;99.90;;;;;;5117315;28;20600;-60
2023/12/09 04:08:12;;;;;;;28.35;12.75;;;6.80;99.90;;;;;;5117173;28;20180;-60
2023/12/09 04:10:38;;;;;;;29.98;13.80;;;6.90;99.90;;;;;;5116802;28;20264;-59
2023/12/09 04:13:04;;;;;;;31.98;13.73;;;7.00;99.90;;;;;;5117057;28;20212;-60
2023/12/09 04:15:30;;;;;;;33.33;13.88;;;6.90;99.90;;;;;;5117009;28;20506;-60
2023/12/09 04:17:56;;;;;;;37.60;13.55;;;7.00;99.90;;;;;;5116907;28;20180;-60
2023/12/09 04:20:21;;;;;;;36.80;14.02;;;7.00;99.90;;;;;;5116914;28;20645;-60
2023/12/09 04:22:47;;;;;;;34.53;14.82;;;7.00;99.90;;;;;;5116960;28;20247;-60
2023/12/09 04:25:13;;;;;;;34.58;13.88;;;7.00;99.90;;;;;;5116754;28;20534;-60
2023/12/09 04:27:39;;;;;;;39.67;15.75;;;7.10;99.90;;;;;;5116810;28;20203;-59
2023/12/09 04:30:05;;;;;;;38.25;15.27;;;7.20;99.90;;;;;;5116807;27;20165;-60
2023/12/09 04:32:31;;;;;;;34.47;15.20;;;7.20;99.90;;;;;;5116711;28;20180;-59
2023/12/09 04:34:58;;;;;;;39.08;15.15;;;7.20;99.90;;;;;;5116673;28;20180;-59
2023/12/09 04:37:24;;;;;;;41.35;15.52;;;7.30;99.90;;;;;;5116565;28;20165;-59
2023/12/09 04:39:50;;;;;;;42.92;16.13;;;7.30;99.90;;;;;;5116586;27;20195;-59
2023/12/09 04:42:17;;;;;;;37.30;15.20;;;7.40;99.90;;;;;;5116549;28;20169;-59
2023/12/09 04:44:42;;;;;;;41.58;16.48;;;7.40;99.90;;;;;;5116365;28;20197;-59
2023/12/09 04:47:08;;;;;;;41.63;17.85;;;7.40;99.90;;;;;;5116425;28;20632;-60
2023/12/09 04:49:34;;;;;;;44.22;16.33;;;7.50;99.90;;;;;;5116104;28;20260;-59
2023/12/09 04:51:59;;;;;;;38.72;16.42;;;7.50;99.90;;;;;;5116482;28;20177;-59
2023/12/09 04:54:25;;;;;;;39.20;16.60;;;7.50;99.90;;;;;;5116307;28;20232;-59
2023/12/09 04:56:51;;;;;;;50.10;16.75;;;7.60;99.90;;;;;;5115834;28;20176;-59
2023/12/09 04:59:16;;;;;;;40.05;16.38;;;7.70;99.90;;;;;;5115206;28;20529;-59
2023/12/09 05:01:42;;;;;;;37.65;16.70;;;7.70;99.90;;;;;;5116079;28;20173;-59
2023/12/09 05:04:09;;;;;;;38.50;17.27;;;7.80;99.90;;;;;;5116127;28;20264;-59
2023/12/09 05:06:34;;;;;;;44.42;16.70;;;7.80;99.90;;;;;;5115994;28;20197;-60
2023/12/09 05:09:00;;;;;;;34.60;15.73;;;7.90;99.90;;;;;;5116037;28;20546;-59
2023/12/09 05:11:26;;;;;;;37.88;16.13;;;7.80;99.90;;;;;;5115918;28;20185;-59
2023/12/09 05:13:52;;;;;;;36.80;14.82;;;7.80;99.90;;;;;;5115915;28;20170;-60
2023/12/09 05:16:18;;;;;;;35.95;14.88;;;7.70;99.90;;;;;;5115773;28;20189;-59
2023/12/09 05:18:43;;;;;;;33.90;15.88;;;7.70;99.90;;;;;;5115823;28;20172;-60
2023/12/09 05:21:12;;;;;;;36.60;16.00;;;7.90;99.90;;;;;;5115572;28;20273;-59
2023/12/09 05:23:37;;;;;;;36.63;14.43;;;7.90;99.90;;;;;;5115835;28;20254;-59
2023/12/09 05:26:03;;;;;;;29.75;14.77;;;7.90;99.90;;;;;;5115627;28;20633;-60
2023/12/09 05:28:30;;;;;;;40.28;14.82;;;7.90;99.90;;;;;;5115643;28;20181;-60
2023/12/09 05:30:56;;;;;;;39.42;15.27;;;8.00;99.90;;;;;;5115655;28;20174;-60
2023/12/09 05:33:22;;;;;;;32.00;14.05;;;7.90;99.90;;;;;;5115541;28;20189;-59
2023/12/09 05:35:48;;;;;;;39.30;14.23;;;7.90;99.90;;;;;;5115429;28;20181;-59
2023/12/09 05:38:13;;;;;;;32.72;14.45;;;7.80;99.90;;;;;;5115383;28;20276;-59
2023/12/09 05:40:39;;;;;;;34.47;13.57;;;7.90;99.90;;;;;;5115610;27;20170;-59
2023/12/09 05:43:05;;;;;;;29.70;13.95;;;8.00;99.90;;;;;;5115433;28;20675;-59
2023/12/09 05:45:30;;;;;;;30.13;13.18;;;7.90;99.90;;;;;;5115194;28;20205;-59
2023/12/09 05:47:56;;;;;;;32.60;13.25;;;8.00;99.90;;;;;;5115518;28;20534;-59
2023/12/09 05:50:22;;;;;;;29.40;12.75;;;7.90;99.90;;;;;;5115358;28;20244;-59
2023/12/09 05:52:48;;;;;;;34.15;13.57;;;7.90;99.90;;;;;;5115152;28;20201;-59
2023/12/09 05:55:17;;;;;;;29.40;12.85;;;7.90;99.90;;;;;;5115083;28;20245;-59
2023/12/09 05:57:43;;;;;;;31.25;12.45;;;7.90;99.90;;;;;;5114953;28;20178;-59
2023/12/09 06:00:11;;;;;;;29.48;12.85;;;8.00;99.90;;;;;;5115152;28;20252;-59
2023/12/09 06:02:38;;;;;;;31.80;12.43;;;8.00;99.90;;;;;;5114930;28;20165;-59
2023/12/09 06:05:04;;;;;;;33.42;11.30;;;8.10;99.90;;;;;;5115088;28;20691;-61
2023/12/09 06:07:29;;;;;;;33.88;11.82;;;8.00;99.90;;;;;;5114775;28;20178;-62
2023/12/09 06:09:55;;;;;;;31.23;11.30;;;8.10;99.90;;;;;;5114498;28;20178;-62
2023/12/09 06:12:21;;;;;;;32.08;11.18;;;8.10;99.90;;;;;;5114784;28;20218;-61
2023/12/09 06:14:46;;;;;;;30.50;11.30;;;8.10;99.90;;;;;;5114737;28;20253;-61
2023/12/09 06:17:12;;;;;;;20.40;10.52;;;8.00;99.90;;;;;;5114842;28;20173;-61
2023/12/09 06:19:38;;;;;;;30.13;11.23;;;8.10;99.90;;;;;;5114665;28;20625;-62
2023/12/09 06:22:03;;;;;;;27.73;11.55;;;8.10;99.90;;;;;;5114519;28;20311;-61
2023/12/09 06:24:29;;;;;;;25.75;11.85;;;8.20;99.90;;;;;;5113278;28;20205;-62
2023/12/09 06:26:54;;;;;;;30.88;12.43;;;8.20;99.90;;;;;;5114173;28;20194;-61
2023/12/09 06:29:20;;;;;;;26.23;12.13;;;8.20;99.90;;;;;;5114504;28;20188;-61
2023/12/09 06:31:46;;;;;;;26.48;12.20;;;8.20;99.90;;;;;;5114069;28;20222;-61
2023/12/09 06:34:11;;;;;;;34.83;12.75;;;8.30;99.90;;;;;;5114069;28;20173;-61
2023/12/09 06:36:37;;;;;;;28.40;13.07;;;8.30;99.90;;;;;;5113362;28;20188;-61
2023/12/09 06:39:03;;;;;;;31.50;12.48;;;8.30;99.90;;;;;;5113629;28;20212;-61
2023/12/09 06:41:29;;;;;;;26.88;12.15;;;8.30;99.90;;;;;;5113635;28;20188;-61
2023/12/09 06:43:54;;;;;;;27.85;12.13;;;8.30;99.90;;;;;;5113752;28;20169;-60
2023/12/09 06:46:20;;;;;;;32.85;11.98;;;8.30;99.90;;;;;;5113640;28;20196;-60
2023/12/09 06:48:45;;;;;;;28.95;11.65;;;8.40;99.90;;;;;;5113633;28;20178;-61
2023/12/09 06:51:15;;;;;;;23.90;11.52;;;8.30;99.90;;;;;;5113686;28;20209;-61
2023/12/09 06:53:41;;;;;;;25.15;11.10;;;8.20;99.90;;;;;;5113670;28;20257;-61
2023/12/09 06:56:08;;;;;;;26.60;11.45;;;8.30;99.90;;;;;;5113512;28;20800;-61
2023/12/09 06:58:34;;;;;;;29.00;10.43;;;8.30;99.90;;;;;;5114218;28;20254;-61
2023/12/09 07:00:59;;;;;;;20.98;10.57;;;8.30;99.90;;;;;;5113911;28;20265;-61
2023/12/09 07:03:25;;;;;;;24.35;10.05;;;8.30;99.90;;;;;;5108357;28;20212;-65
2023/12/09 07:05:51;;;;;;;28.85;10.60;;;8.30;99.90;;;;;;5110264;28;20679;-61
2023/12/09 07:08:17;;;;;;;26.58;9.15;;;8.30;99.90;;;;;;5113508;28;20267;-61
2023/12/09 07:10:46;;;;;;;19.77;8.82;;;8.30;99.90;;;;;;5112695;28;20269;-61
2023/12/09 07:13:12;;;;;;;21.60;8.73;;;8.30;99.90;;;;;;5093350;28;20543;-61
2023/12/09 07:15:38;;;;;;;25.30;9.23;;;8.40;99.90;;;;;;5093258;28;20205;-61
2023/12/09 07:18:04;;;;;;;21.63;8.57;;;8.30;99.90;;;;;;5093305;28;20598;-61
2023/12/09 07:20:30;;;;;;;22.35;8.52;;;8.30;99.90;;;;;;5103621;28;20200;-61
2023/12/09 07:22:56;;;;;;;28.55;7.57;;;8.40;99.90;;;;;;5116918;28;20705;-61
2023/12/09 07:25:23;;;;;;;21.65;8.75;;;8.40;99.90;;;;;;5114835;28;20205;-61
2023/12/09 07:27:50;;;;;;;21.08;7.63;;;8.40;99.90;;;;;;5117723;28;20177;-61
2023/12/09 07:30:16;;;;;;;18.63;7.40;;;8.50;99.90;;;;;;5117408;28;20192;-61
2023/12/09 07:32:42;;;;;;;24.60;7.10;;;8.60;99.90;;;;;;5117446;28;20178;-61
2023/12/09 07:35:08;;;;;;;13.93;6.35;;;8.60;99.90;;;;;;5117321;28;20630;-61
2023/12/09 07:37:33;;;;;;;18.08;6.18;;;8.50;99.90;;;;;;5117474;28;20219;-61
2023/12/09 07:39:59;;;;;;;23.20;6.40;;;8.50;99.90;;;;;;5117280;28;20174;-61
2023/12/09 07:42:24;;;;;;;23.50;5.65;;;8.50;99.90;;;;;;5114217;28;20174;-60
2023/12/09 07:44:50;;;;;;;21.35;5.75;;;8.50;99.90;;;;;;5117583;28;20177;-60
2023/12/09 07:47:16;;;;;;;19.17;5.05;;;8.50;99.90;;;;;;5117439;28;20184;-61
2023/12/09 07:49:42;;;;;;;21.65;5.45;;;8.50;99.90;;;;;;5117309;28;20185;-60
2023/12/09 07:52:08;;;;;;;17.60;4.85;;;8.60;99.90;;;;;;5117302;28;20226;-60
2023/12/09 07:54:33;;;;;;;20.77;5.03;;;8.70;99.90;;;;;;5117193;28;20174;-60
2023/12/09 07:56:59;;;;;;;22.08;5.10;;;8.70;99.90;;;;;;5117240;28;20507;-60
2023/12/09 07:59:25;;;;;;;14.65;4.20;;;8.60;99.90;;;;;;5117243;28;20220;-60
2023/12/09 08:01:50;;;;;;;18.10;4.90;;;8.60;99.90;;;;;;5117248;28;20233;-60
2023/12/09 08:04:16;;;;;;;16.90;4.60;;;8.60;99.90;;;;;;5116941;28;20627;-60
2023/12/09 08:06:41;;;;;;;13.55;4.47;;;8.60;99.90;;;;;;5117195;28;20291;-61
2023/12/09 08:09:08;;;;;;;16.95;4.30;;;8.60;99.90;;;;;;5116648;28;20189;-60
2023/12/09 08:11:34;;;;;;;15.27;4.60;;;8.70;99.90;;;;;;5116067;28;20272;-60
2023/12/09 08:14:00;;;;;;;12.45;4.25;;;8.60;99.90;;;;;;5116763;28;20649;-60
2023/12/09 08:16:25;;;;;;;13.18;4.32;;;8.70;99.90;;;;;;5116862;28;20206;-61
2023/12/09 08:18:51;;;;;;;13.63;3.90;;;8.70;99.90;;;;;;5116952;28;20268;-61
2023/12/09 08:21:16;;;;;;;16.67;4.68;;;8.70;99.90;;;;;;5116509;28;20225;-60
2023/12/09 08:23:42;;;;;;;16.52;4.57;;;8.70;99.90;;;;;;5116931;28;20166;-60
2023/12/09 08:26:08;;;;;;;18.02;4.85;;;8.80;99.90;;;;;;5116782;28;20211;-61
2023/12/09 08:28:34;;;;;;;13.70;4.22;;;8.90;99.90;;;;;;5116826;28;20185;-61
2023/12/09 08:31:00;;;;;;;19.17;4.22;;;8.90;99.90;;;;;;5116768;28;20169;-60
2023/12/09 08:33:25;;;;;;;18.75;4.72;;;8.80;99.90;;;;;;5116575;28;20537;-60
2023/12/09 08:35:51;;;;;;;18.25;4.97;;;8.80;99.90;;;;;;5116386;28;20177;-60
2023/12/09 08:38:16;;;;;;;13.50;4.88;;;8.80;99.90;;;;;;5116622;28;20183;-60
2023/12/09 08:40:42;;;;;;;17.70;5.18;;;8.80;99.90;;;;;;5116575;28;20202;-61
2023/12/09 08:43:08;;;;;;;14.73;4.80;;;8.80;99.90;;;;;;5116769;28;20177;-61
2023/12/09 08:45:34;;;;;;;21.77;5.03;;;8.90;99.90;;;;;;5116855;28;20654;-60
2023/12/09 08:48:00;;;;;;;20.25;4.97;;;8.90;99.90;;;;;;5116528;28;20534;-60
2023/12/09 08:50:25;;;;;;;14.32;4.97;;;9.00;99.90;;;;;;5116397;28;20169;-61
2023/12/09 08:52:54;;;;;;;12.40;5.35;;;9.00;99.90;;;;;;5116320;28;20209;-61
2023/12/09 08:55:20;;;;;;;14.65;4.65;;;8.90;99.90;;;;;;5116364;28;20180;-60
2023/12/09 08:57:45;;;;;;;14.50;4.78;;;9.00;99.90;;;;;;5116174;28;20166;-60
2023/12/09 09:00:11;;;;;;;16.27;4.57;;;9.10;99.90;;;;;;5116185;28;20180;-62
2023/12/09 09:02:37;;;;;;;17.98;4.53;;;9.00;99.90;;;;;;5116333;28;20177;-61
2023/12/09 09:05:03;;;;;;;17.77;5.20;;;9.10;99.90;;;;;;5116026;28;20314;-61
2023/12/09 09:07:29;;;;;;;16.13;4.47;;;9.20;99.90;;;;;;5115984;28;20185;-61
2023/12/09 09:09:55;;;;;;;18.17;4.78;;;9.20;99.90;;;;;;5114720;28;20693;-61
2023/12/09 09:12:20;;;;;;;18.73;4.75;;;9.20;99.90;;;;;;5116073;28;20299;-60
2023/12/09 09:14:46;;;;;;;13.93;4.63;;;9.30;99.90;;;;;;5115890;28;20294;-61
2023/12/09 09:17:12;;;;;;;15.00;3.97;;;9.30;99.90;;;;;;5115812;28;20177;-61
2023/12/09 09:19:37;;;;;;;14.55;3.95;;;9.40;99.90;;;;;;5115461;28;20185;-61
2023/12/09 09:22:03;;;;;;;16.02;4.43;;;9.50;99.90;;;;;;5115242;28;20236;-61
2023/12/09 09:24:29;;;;;;;14.07;4.25;;;9.40;99.90;;;;;;5115451;28;20193;-61
2023/12/09 09:26:54;;;;;;;12.10;3.65;;;9.30;99.90;;;;;;5115696;28;20227;-60
2023/12/09 09:29:20;;;;;;;14.95;3.50;;;9.40;99.90;;;;;;5115811;28;20180;-60
2023/12/09 09:31:45;;;;;;;11.23;3.80;;;9.40;99.90;;;;;;5115795;28;20610;-62
2023/12/09 09:34:11;;;;;;;13.05;3.58;;;9.40;99.90;;;;;;5115247;28;20634;-60
2023/12/09 09:36:37;;;;;;;6.97;2.97;;;9.50;99.90;;;;;;5115485;28;20213;-61
2023/12/09 09:39:02;;;;;;;11.60;3.08;;;9.60;99.90;;;;;;5115440;28;20633;-60
2023/12/09 09:41:35;;;;;;;8.35;3.10;;;9.60;99.90;;;;;;5115343;28;20177;-60
2023/12/09 09:44:10;;;;;;;9.77;3.03;;;9.60;99.90;;;;;;5114787;28;20162;-60
2023/12/09 09:46:39;;;;;;;9.52;2.58;;;9.50;99.90;;;;;;5115390;28;20527;-60
2023/12/09 09:49:05;;;;;;;7.53;2.60;;;9.60;99.90;;;;;;5115216;28;20166;-60
2023/12/09 09:51:31;;;;;;;8.70;2.50;;;9.50;99.90;;;;;;5115160;28;20648;-61
2023/12/09 09:54:25;;;;;;;8.57;2.60;;;9.40;99.90;;;;;;5115187;28;20475;-60
2023/12/09 09:56:52;;;;;;;8.10;2.33;;;9.40;99.90;;;;;;5115252;28;20157;-60
2023/12/09 09:59:18;;;;;;;5.15;2.55;;;9.30;99.90;;;;;;5115064;28;20246;-61
2023/12/09 10:01:44;;;;;;;8.82;2.25;;;9.30;99.90;;;;;;5114728;28;20197;-60
2023/12/09 10:04:12;;;;;;;5.20;2.25;;;9.30;99.90;;;;;;5114926;28;20197;-62
2023/12/09 10:06:41;;;;;;;5.82;2.03;;;9.40;99.90;;;;;;5114524;28;20201;-61
2023/12/09 10:09:07;;;;;;;8.07;2.60;;;9.50;99.90;;;;;;5114575;28;20223;-61
2023/12/09 10:11:33;;;;;;;8.15;2.47;;;9.40;99.90;;;;;;5114061;28;20185;-61
2023/12/09 10:13:58;;;;;;;4.80;2.00;;;9.40;99.90;;;;;;5113957;28;20179;-61
2023/12/09 10:16:24;;;;;;;7.68;2.50;;;9.50;99.90;;;;;;5113857;28;20181;-62
2023/12/09 10:18:50;;;;;;;6.05;2.15;;;9.40;99.90;;;;;;5113805;28;20169;-61
2023/12/09 10:21:16;;;;;;;5.30;2.08;;;9.30;99.90;;;;;;5113381;28;20253;-61
2023/12/09 10:23:44;;;;;;;7.07;2.75;;;9.30;99.90;;;;;;5113841;28;20170;-60
2023/12/09 10:26:10;;;;;;;5.28;2.20;;;9.30;99.90;;;;;;5113608;28;20249;-60
2023/12/09 10:28:36;;;;;;;5.22;2.00;;;9.30;99.90;;;;;;5113706;28;20173;-60
2023/12/09 10:31:02;;;;;;;6.53;2.33;;;9.40;99.90;;;;;;5113635;28;20198;-61
2023/12/09 10:33:32;;;;;;;4.97;1.90;;;9.40;99.90;;;;;;5113660;28;20177;-60
2023/12/09 10:35:58;;;;;;;8.88;2.10;;;9.30;99.90;;;;;;5113735;28;20230;-60
2023/12/09 10:38:24;;;;;;;7.68;2.22;;;9.30;99.90;;;;;;5113605;28;20700;-60
2023/12/09 10:40:50;;;;;;;6.47;1.77;;;9.30;99.90;;;;;;5113552;28;20254;-60
2023/12/09 10:43:16;;;;;;;6.30;2.08;;;9.40;99.90;;;;;;5113563;28;20178;-58
2023/12/09 10:45:43;;;;;;;6.53;1.83;;;9.30;99.90;;;;;;5112907;28;20680;-58
2023/12/09 10:48:08;;;;;;;4.25;1.48;;;9.30;99.90;;;;;;5112283;28;20276;-61
2023/12/09 10:50:37;;;;;;;2.47;1.40;;;9.30;99.90;;;;;;5112864;28;20200;-61
2023/12/09 10:53:04;;;;;;;3.40;1.40;;;9.20;99.90;;;;;;5112835;28;20260;-62
2023/12/09 10:55:30;;;;;;;2.92;1.40;;;9.30;99.90;;;;;;5112105;28;20181;-61
2023/12/09 10:57:57;;;;;;;4.25;1.30;;;9.40;99.90;;;;;;5112860;28;20246;-64
2023/12/09 11:00:24;;;;;;;2.10;1.50;;;9.60;99.90;;;;;;5113261;28;20161;-61
2023/12/09 11:02:52;;;;;;;6.35;1.58;;;9.50;99.90;;;;;;5112774;28;20249;-61
2023/12/09 11:05:19;;;;;;;2.63;1.27;;;9.40;99.90;;;;;;5113014;28;20237;-61
2023/12/09 11:07:47;;;;;;;4.45;1.10;;;9.40;99.90;;;;;;5113115;28;20177;-60
2023/12/09 11:10:13;;;;;;;4.35;1.20;;;9.30;99.90;;;;;;5112844;28;20177;-60
2023/12/09 11:12:41;;;;;;;2.15;1.17;;;9.40;99.90;;;;;;5113165;28;20172;-61
2023/12/09 11:15:13;;;;;;;5.95;1.25;;;9.40;99.90;;;;;;5113052;28;20233;-60
2023/12/09 11:17:47;;;;;;;4.25;1.10;;;9.40;99.90;;;;;;5112800;28;20180;-61
2023/12/09 11:20:19;;;;;;;3.85;1.15;;;9.40;99.90;;;;;;5113298;28;20164;-60
2023/12/09 11:22:45;;;;;;;4.40;1.10;;;9.30;99.90;;;;;;5113011;28;20224;-60
2023/12/09 11:25:18;;;;;;;1.58;1.10;;;9.40;99.90;;;;;;5112920;28;20173;-60
2023/12/09 11:27:43;;;;;;;2.42;1.05;;;9.40;99.90;;;;;;5113019;28;20657;-60
2023/12/09 11:30:30;;;;;;;2.72;1.30;;;9.40;99.90;;;;;;5112974;28;20264;-60
2023/12/09 11:32:56;;;;;;;1.95;1.00;;;9.40;99.90;;;;;;5113009;28;20181;-60
2023/12/09 11:35:22;;;;;;;2.33;1.20;;;9.30;99.90;;;;;;5113047;28;20183;-60
2023/12/09 11:37:50;;;;;;;3.45;1.33;;;9.30;99.90;;;;;;5112627;28;20222;-60
2023/12/09 11:40:15;;;;;;;5.30;1.42;;;9.40;99.90;;;;;;5112775;28;20181;-60
2023/12/09 11:42:42;;;;;;;2.20;1.17;;;9.50;99.90;;;;;;5112858;28;20180;-60
2023/12/09 11:45:08;;;;;;;2.45;1.40;;;9.50;99.90;;;;;;5112706;28;20173;-60
2023/12/09 11:47:36;;;;;;;2.72;1.20;;;9.50;99.90;;;;;;5113031;28;20173;-60
2023/12/09 11:50:02;;;;;;;2.88;1.17;;;9.50;99.90;;;;;;5112676;28;20181;-60
2023/12/09 11:52:29;;;;;;;2.30;1.10;;;9.40;99.90;;;;;;5113010;28;20178;-60
2023/12/09 11:55:04;;;;;;;4.47;1.17;;;9.50;99.90;;;;;;5112867;28;20165;-60
2023/12/09 11:57:32;;;;;;;1.42;1.00;;;9.30;99.90;;;;;;5112819;28;20188;-60
2023/12/09 11:59:58;;;;;;;3.05;1.20;;;9.30;99.90;;;;;;5112629;28;20252;-60
2023/12/09 12:02:23;;;;;;;2.53;1.38;;;9.40;99.90;;;;;;5112570;28;20310;-59
2023/12/09 12:04:49;;;;;;;2.22;1.20;;;9.40;99.90;;;;;;5112707;28;20174;-59
2023/12/09 12:07:15;;;;;;;2.40;1.02;;;9.40;99.90;;;;;;5113553;28;20595;-60
2023/12/09 12:09:41;;;;;;;1.45;1.05;;;9.40;99.90;;;;;;5116319;28;20169;-59
2023/12/09 12:12:08;;;;;;;2.08;1.15;;;9.40;99.90;;;;;;5116184;28;20177;-60
2023/12/09 12:14:35;;;;;;;1.52;0.90;;;9.40;99.90;;;;;;5116341;28;20641;-60
2023/12/09 12:17:01;;;;;;;6.05;1.08;;;9.20;99.90;;;;;;5116172;28;20226;-60
2023/12/09 12:19:28;;;;;;;1.52;0.90;;;9.20;99.90;;;;;;5116169;28;20173;-60
2023/12/09 12:21:54;;;;;;;2.63;1.08;;;9.20;99.90;;;;;;5115939;28;20224;-59
2023/12/09 12:24:20;;;;;;;1.45;1.10;;;9.20;99.90;;;;;;5116061;28;20173;-60
2023/12/09 12:26:47;;;;;;;1.95;1.10;;;9.20;99.90;;;;;;5115726;28;20223;-60
2023/12/09 12:29:20;;;;;;;3.55;1.20;;;9.20;99.90;;;;;;5115934;28;20181;-61
2023/12/09 12:31:49;;;;;;;2.33;0.80;;;9.30;99.90;;;;;;5115950;28;20261;-60
2023/12/09 12:34:19;;;;;;;1.58;0.77;;;9.40;99.90;;;;;;5115575;28;20174;-60
2023/12/09 12:36:46;;;;;;;1.05;0.80;;;9.50;99.90;;;;;;5115375;28;20238;-60
2023/12/09 12:39:12;;;;;;;2.80;0.90;;;9.50;99.90;;;;;;5115774;28;20157;-59
2023/12/09 12:41:41;;;;;;;2.47;1.08;;;9.50;99.90;;;;;;5114668;27;20184;-60